createdAt,value
2023-09-29T00:02:15.039Z,13.17
2023-09-29T00:07:17.482Z,13.13
2023-09-29T00:12:20.209Z,13.08
2023-09-29T00:17:22.126Z,13.03
2023-09-29T00:22:24.085Z,12.98
2023-09-29T00:27:26.164Z,12.95
2023-09-29T00:32:28.125Z,12.92
2023-09-29T00:37:30.520Z,12.89
2023-09-29T00:42:33.204Z,12.86
2023-09-29T00:47:37.525Z,12.82
2023-09-29T00:52:41.886Z,12.76
2023-09-29T00:57:49.275Z,12.71
2023-09-29T01:02:51.545Z,12.65
2023-09-29T01:07:53.833Z,12.61
2023-09-29T01:12:55.785Z,12.56
2023-09-29T01:17:57.851Z,12.54
2023-09-29T01:23:02.396Z,12.51
2023-09-29T01:28:06.656Z,12.48
2023-09-29T01:33:09.615Z,12.44
2023-09-29T01:38:11.548Z,12.43
2023-09-29T01:43:13.403Z,12.45
2023-09-29T01:48:15.393Z,12.45
2023-09-29T01:53:18.049Z,12.44
2023-09-29T01:58:21.456Z,12.41
2023-09-29T02:03:23.718Z,12.38
2023-09-29T02:08:27.038Z,12.34
2023-09-29T02:13:28.949Z,12.30
2023-09-29T02:18:31.102Z,12.28
2023-09-29T02:23:34.971Z,12.29
2023-09-29T02:28:37.534Z,12.30
2023-09-29T02:33:41.975Z,12.32
2023-09-29T02:38:43.901Z,12.31
2023-09-29T02:43:45.813Z,12.30
2023-09-29T02:48:48.273Z,12.29
2023-09-29T02:53:51.606Z,12.27
2023-09-29T02:58:56.003Z,12.23
2023-09-29T03:04:00.239Z,12.19
2023-09-29T03:09:03.021Z,12.12
2023-09-29T03:14:05.627Z,12.07
2023-09-29T03:19:09.610Z,12.01
2023-09-29T03:24:11.546Z,11.96
2023-09-29T03:29:13.455Z,11.91
2023-09-29T03:34:15.754Z,11.87
2023-09-29T03:39:19.669Z,11.84
2023-09-29T03:44:22.575Z,11.80
2023-09-29T03:49:24.677Z,11.76
2023-09-29T03:54:27.038Z,11.73
2023-09-29T03:59:29.036Z,11.68
2023-09-29T04:04:32.172Z,11.65
2023-09-29T04:09:34.439Z,11.62
2023-09-29T04:14:36.409Z,11.58
2023-09-29T04:19:39.664Z,11.55
2023-09-29T04:24:41.571Z,11.51
2023-09-29T04:29:43.505Z,11.48
2023-09-29T04:34:46.447Z,11.44
2023-09-29T04:39:48.428Z,11.41
2023-09-29T04:44:50.323Z,11.38
2023-09-29T04:49:52.250Z,11.35
2023-09-29T04:54:54.592Z,11.34
2023-09-29T04:59:56.616Z,11.34
2023-09-29T05:04:58.501Z,11.36
2023-09-29T05:10:00.639Z,11.39
2023-09-29T05:15:03.282Z,11.43
2023-09-29T05:20:06.626Z,11.50
2023-09-29T05:25:09.745Z,11.57
2023-09-29T05:30:13.607Z,11.67
2023-09-29T05:35:15.560Z,11.78
2023-09-29T05:40:17.690Z,11.90
2023-09-29T05:45:21.242Z,12.04
2023-09-29T05:50:23.150Z,12.18
2023-09-29T05:55:25.320Z,12.33
2023-09-29T06:00:27.731Z,12.49
2023-09-29T06:05:31.037Z,12.67
2023-09-29T06:10:33.176Z,12.86
2023-09-29T06:15:35.040Z,13.06
2023-09-29T06:20:36.927Z,13.27
2023-09-29T06:25:38.901Z,13.49
2023-09-29T06:30:40.907Z,13.73
2023-09-29T06:35:43.339Z,13.96
2023-09-29T06:40:45.395Z,14.20
2023-09-29T06:50:52.455Z,14.72
2023-09-29T06:55:55.495Z,15.00
2023-09-29T07:01:02.074Z,15.30
2023-09-29T07:06:04.674Z,15.60
2023-09-29T07:11:06.736Z,15.87
2023-09-29T07:16:09.110Z,16.13
2023-09-29T07:21:11.009Z,16.36
2023-09-29T07:26:13.373Z,16.57
2023-09-29T07:31:15.330Z,16.78
2023-09-29T07:36:17.523Z,16.99
2023-09-29T07:41:19.512Z,17.20
2023-09-29T07:46:21.587Z,17.43
2023-09-29T07:51:26.198Z,17.67
2023-09-29T07:56:28.221Z,17.88
2023-09-29T08:01:30.490Z,18.12
2023-09-29T08:06:32.306Z,18.36
2023-09-29T08:11:34.668Z,18.60
2023-09-29T08:16:37.489Z,18.87
2023-09-29T08:21:40.384Z,19.14
2023-09-29T08:26:42.879Z,19.39
2023-09-29T08:31:45.150Z,19.62
2023-09-29T08:36:47.255Z,19.84
2023-09-29T08:41:57.405Z,20.08
2023-09-29T08:47:02.499Z,20.32
2023-09-29T08:52:05.685Z,20.55
2023-09-29T08:57:08.976Z,20.76
2023-09-29T09:02:11.257Z,20.96
2023-09-29T09:07:14.247Z,21.18
2023-09-29T09:12:18.409Z,21.37
2023-09-29T09:17:20.574Z,21.57
2023-09-29T09:22:38.708Z,21.75
2023-09-29T09:27:42.729Z,21.91
2023-09-29T09:32:44.949Z,22.10
2023-09-29T09:37:52.578Z,22.27
2023-09-29T09:42:55.320Z,22.43
2023-09-29T09:48:01.036Z,22.61
2023-09-29T09:53:09.213Z,22.78
2023-09-29T09:58:14.644Z,22.95
2023-09-29T10:03:18.242Z,23.11
2023-09-29T10:08:32.439Z,23.25
2023-09-29T10:13:39.371Z,23.41
2023-09-29T10:18:42.039Z,23.54
2023-09-29T10:23:51.867Z,23.64
2023-09-29T10:29:02.299Z,23.76
2023-09-29T10:34:04.470Z,23.88
2023-09-29T10:39:06.491Z,24.02
2023-09-29T10:44:08.652Z,24.14
2023-09-29T10:49:11.323Z,24.20
2023-09-29T10:54:13.582Z,24.29
2023-09-29T10:59:15.444Z,24.41
2023-09-29T11:04:17.589Z,24.50
2023-09-29T11:09:29.829Z,24.52
2023-09-29T11:14:39.830Z,24.53
2023-09-29T11:19:55.781Z,24.56
2023-09-29T11:24:58.326Z,24.57
2023-09-29T11:30:02.332Z,24.65
2023-09-29T11:35:04.410Z,24.65
2023-09-29T11:40:12.803Z,24.65
2023-09-29T11:45:14.945Z,24.71
2023-09-29T11:50:16.926Z,24.76
2023-09-29T11:55:18.890Z,24.82
2023-09-29T12:00:20.752Z,24.85
2023-09-29T12:05:22.805Z,24.91
2023-09-29T12:10:24.721Z,24.95
2023-09-29T12:15:27.188Z,25.01
2023-09-29T12:20:29.821Z,25.09
2023-09-29T12:25:32.510Z,25.20
2023-09-29T12:30:34.737Z,25.24
2023-09-29T12:35:36.629Z,25.24
2023-09-29T12:40:38.572Z,25.28
2023-09-29T12:45:40.391Z,25.36
2023-09-29T12:50:42.636Z,25.43
2023-09-29T12:55:44.677Z,25.46
2023-09-29T13:00:46.740Z,25.45
2023-09-29T13:05:49.162Z,25.46
2023-09-29T13:10:51.382Z,25.47
2023-09-29T13:15:53.846Z,25.47
2023-09-29T13:20:56.479Z,25.48
2023-09-29T13:25:58.565Z,25.41
2023-09-29T13:31:02.786Z,25.37
2023-09-29T13:36:05.172Z,25.34
2023-09-29T13:41:07.337Z,25.32
2023-09-29T13:46:09.689Z,25.36
2023-09-29T13:51:12.036Z,25.34
2023-09-29T13:56:14.793Z,25.31
2023-09-29T14:01:22.915Z,25.25
2023-09-29T14:06:25.136Z,25.25
2023-09-29T14:11:27.451Z,25.29
2023-09-29T14:16:30.124Z,25.27
2023-09-29T14:21:32.119Z,25.19
2023-09-29T14:26:34.659Z,25.13
2023-09-29T14:31:36.656Z,25.02
2023-09-29T14:36:38.498Z,24.91
2023-09-29T14:41:40.391Z,24.82
2023-09-29T14:46:42.821Z,24.68
2023-09-29T14:51:44.639Z,24.52
2023-09-29T14:56:46.469Z,24.38
2023-09-29T15:01:48.936Z,24.23
2023-09-29T15:06:50.878Z,24.09
2023-09-29T15:11:52.869Z,23.96
2023-09-29T15:16:54.838Z,23.79
2023-09-29T15:21:57.448Z,23.64
2023-09-29T15:27:05.133Z,23.48
2023-09-29T15:32:20.707Z,23.32
2023-09-29T15:37:22.650Z,23.16
2023-09-29T15:42:25.351Z,23.00
2023-09-29T15:47:27.405Z,22.82
2023-09-29T15:52:29.378Z,22.61
2023-09-29T15:57:31.542Z,22.39
2023-09-29T16:02:33.400Z,22.17
2023-09-29T16:07:35.895Z,21.95
2023-09-29T16:12:37.747Z,21.75
2023-09-29T16:17:40.114Z,21.55
2023-09-29T16:22:41.969Z,21.35
2023-09-29T16:27:43.890Z,21.17
2023-09-29T16:32:45.855Z,20.95
2023-09-29T16:37:47.756Z,20.72
2023-09-29T16:42:49.551Z,20.48
2023-09-29T16:47:52.019Z,20.23
2023-09-29T16:52:53.896Z,19.97
2023-09-29T16:57:56.047Z,19.73
2023-09-29T17:02:58.087Z,19.51
2023-09-29T17:08:01.733Z,19.32
2023-09-29T17:13:04.784Z,19.16
2023-09-29T17:18:07.028Z,19.02
2023-09-29T17:23:10.028Z,18.84
2023-09-29T17:28:14.570Z,18.66
2023-09-29T17:33:17.711Z,18.52
2023-09-29T17:38:19.765Z,18.40
2023-09-29T17:43:21.691Z,18.33
2023-09-29T17:48:40.884Z,18.34
2023-09-29T17:53:46.370Z,18.29
2023-09-29T17:58:48.764Z,18.16
2023-09-29T18:03:50.724Z,18.00
2023-09-29T18:08:53.043Z,17.84
2023-09-29T18:13:58.116Z,17.71
2023-09-29T18:19:01.804Z,17.60
2023-09-29T18:24:06.817Z,17.51
2023-09-29T18:29:10.292Z,17.45
2023-09-29T18:34:12.992Z,17.40
2023-09-29T18:39:15.839Z,17.37
2023-09-29T18:44:18.083Z,17.31
2023-09-29T18:49:20.099Z,17.25
2023-09-29T18:54:24.668Z,17.21
2023-09-29T18:59:30.352Z,17.15
2023-09-29T19:04:35.595Z,17.08
2023-09-29T19:09:39.316Z,17.02
2023-09-29T19:14:41.409Z,16.96
2023-09-29T19:19:43.426Z,16.88
2023-09-29T19:24:46.503Z,16.80
2023-09-29T19:29:50.635Z,16.73
2023-09-29T19:34:53.016Z,16.66
2023-09-29T19:39:54.879Z,16.59
2023-09-29T19:44:57.419Z,16.52
2023-09-29T19:50:01.205Z,16.46
2023-09-29T19:55:04.559Z,16.40
2023-09-29T20:00:07.116Z,16.36
2023-09-29T20:05:17.850Z,16.31
2023-09-29T20:10:20.154Z,16.26
2023-09-29T20:15:22.002Z,16.21
2023-09-29T20:20:23.949Z,16.17
2023-09-29T20:25:26.247Z,16.15
2023-09-29T20:30:28.507Z,16.09
2023-09-29T20:35:31.562Z,16.05
2023-09-29T20:40:33.450Z,15.99
2023-09-29T20:45:35.942Z,15.93
2023-09-29T20:50:39.112Z,15.91
2023-09-29T20:55:41.048Z,15.89
2023-09-29T21:00:43.100Z,15.86
2023-09-29T21:05:45.098Z,15.81
2023-09-29T21:11:01.631Z,15.75
2023-09-29T21:16:07.586Z,15.68
2023-09-29T21:21:09.567Z,15.60
2023-09-29T21:26:15.874Z,15.49
2023-09-29T21:31:22.663Z,15.40
2023-09-29T21:36:24.780Z,15.31
2023-09-29T21:41:26.602Z,15.23
2023-09-29T21:46:34.447Z,15.14
2023-09-29T21:51:40.391Z,15.09
2023-09-29T21:56:42.620Z,15.05
2023-09-29T22:01:44.672Z,15.00
2023-09-29T22:06:46.544Z,14.92
2023-09-29T22:11:48.607Z,14.84
2023-09-29T22:16:50.527Z,14.76
2023-09-29T22:21:56.132Z,14.70
2023-09-29T22:26:58.070Z,14.67
2023-09-29T22:32:00.702Z,14.66
2023-09-29T22:37:02.617Z,14.68
2023-09-29T22:42:04.508Z,14.71
2023-09-29T22:47:06.756Z,14.75
2023-09-29T22:52:08.642Z,14.78
2023-09-29T22:57:10.550Z,14.78
2023-09-29T23:02:12.749Z,14.77
2023-09-29T23:07:14.712Z,14.79
2023-09-29T23:12:19.647Z,14.85
2023-09-29T23:17:21.724Z,14.90
2023-09-29T23:22:23.725Z,14.94
2023-09-29T23:27:25.683Z,14.97
2023-09-29T23:32:29.098Z,14.99
2023-09-29T23:37:31.411Z,15.02
2023-09-29T23:42:33.773Z,15.04
2023-09-29T23:47:36.347Z,15.07
2023-09-29T23:52:38.907Z,15.11
2023-09-29T23:57:41.160Z,15.13
